Time;durP1;ratioP1;P1;durP2;ratioP2;P2;SDS_P1;SDS_P2;PMS_P1;PMS_P2;Temp;Humidity;BMP_temperature;BMP_pressure;BME280_temperature;BME280_humidity;BME280_pressure;Samples;Min_cycle;Max_cycle;Signal;HPM_P1;HPM_P2
2023/04/20 04:01:37;;;;;;;7.18;5.85;;;3.60;99.90;;;;;;6185710;23;20589;-70
2023/04/20 04:04:04;;;;;;;8.23;6.82;;;3.60;99.90;;;;;;6185688;23;20205;-70
2023/04/20 04:06:31;;;;;;;5.97;5.47;;;3.60;99.90;;;;;;6185588;23;20537;-70
2023/04/20 04:08:58;;;;;;;5.65;5.20;;;3.70;99.90;;;;;;6185998;23;20198;-70
2023/04/20 04:11:28;;;;;;;6.05;5.05;;;3.70;99.90;;;;;;6189096;23;20169;-70
2023/04/20 04:13:55;;;;;;;5.93;5.32;;;3.70;99.90;;;;;;6188165;23;20495;-70
2023/04/20 04:16:22;;;;;;;6.70;6.05;;;3.70;99.90;;;;;;6187768;23;20177;-70
2023/04/20 04:18:50;;;;;;;8.27;6.80;;;3.80;99.90;;;;;;6187440;23;20193;-70
2023/04/20 04:21:16;;;;;;;7.05;6.35;;;3.70;99.90;;;;;;6187439;23;20212;-70
2023/04/20 04:23:43;;;;;;;6.22;5.72;;;3.80;99.90;;;;;;6187707;23;20185;-71
2023/04/20 04:26:10;;;;;;;7.07;6.45;;;3.80;99.90;;;;;;6187671;23;20181;-71
2023/04/20 04:28:37;;;;;;;8.57;6.57;;;3.80;99.90;;;;;;6187252;23;20197;-71
2023/04/20 04:31:05;;;;;;;7.80;7.10;;;3.80;99.90;;;;;;6187235;23;20516;-70
2023/04/20 04:33:33;;;;;;;6.07;5.57;;;3.80;99.90;;;;;;6187335;23;20174;-74
2023/04/20 04:36:01;;;;;;;7.68;6.75;;;3.80;99.90;;;;;;6187543;23;20177;-70
2023/04/20 04:38:28;;;;;;;7.32;6.63;;;3.80;99.90;;;;;;6187176;23;20197;-70
2023/04/20 04:40:55;;;;;;;6.88;6.28;;;3.70;99.90;;;;;;6187120;23;20196;-69
2023/04/20 04:43:23;;;;;;;7.18;6.47;;;3.80;99.90;;;;;;6187150;23;20208;-68
2023/04/20 04:45:50;;;;;;;6.65;6.05;;;3.90;99.90;;;;;;6187046;23;20181;-69
2023/04/20 04:48:16;;;;;;;5.95;5.45;;;3.90;99.90;;;;;;6187036;23;20197;-69
2023/04/20 04:50:43;;;;;;;6.55;5.95;;;4.00;99.90;;;;;;6187162;23;20192;-70
2023/04/20 04:53:11;;;;;;;8.75;6.97;;;4.00;99.90;;;;;;6187099;23;20185;-70
2023/04/20 04:55:38;;;;;;;7.32;6.63;;;4.00;99.90;;;;;;6186668;23;20178;-71
2023/04/20 04:58:04;;;;;;;8.38;6.88;;;3.90;99.90;;;;;;6187008;23;20642;-70
2023/04/20 05:00:31;;;;;;;10.02;7.93;;;3.90;99.90;;;;;;6186573;23;20198;-69
2023/04/20 05:02:58;;;;;;;9.73;8.38;;;3.90;99.90;;;;;;6186763;23;20162;-70
2023/04/20 05:05:25;;;;;;;8.25;7.45;;;3.90;99.90;;;;;;6186931;23;20196;-71
2023/04/20 05:07:51;;;;;;;8.70;7.60;;;3.90;99.90;;;;;;6187131;23;20177;-71
2023/04/20 05:10:20;;;;;;;7.95;7.05;;;3.90;99.90;;;;;;6186937;23;20192;-71
2023/04/20 05:12:47;;;;;;;8.38;7.13;;;4.00;99.90;;;;;;6186868;23;20174;-71
2023/04/20 10:17:58;;;;;;;2.25;2.15;;;7.00;99.90;;;;;;6224417;22;20234;-72
2023/04/20 10:20:26;;;;;;;1.60;1.60;;;7.10;99.90;;;;;;6246579;22;20196;-72
2023/04/20 10:22:55;;;;;;;1.70;1.70;;;7.20;99.90;;;;;;6249907;22;20183;-72
2023/04/20 10:25:25;;;;;;;1.50;1.50;;;7.20;99.90;;;;;;6253107;22;20168;-72
2023/04/20 10:27:54;;;;;;;1.50;1.50;;;7.00;99.90;;;;;;6254416;22;20516;-72
2023/04/20 10:30:22;;;;;;;2.40;2.20;;;6.90;99.90;;;;;;6249752;22;20255;-72
2023/04/20 10:32:49;;;;;;;2.22;2.13;;;6.80;99.90;;;;;;6236000;22;20212;-73
2023/04/20 10:35:18;;;;;;;1.90;1.90;;;6.80;99.90;;;;;;6221446;23;20215;-72
2023/04/20 10:37:49;;;;;;;1.60;1.60;;;6.90;99.90;;;;;;6221564;23;20230;-73
2023/04/20 10:40:17;;;;;;;1.50;1.50;;;7.00;99.90;;;;;;6221353;23;20176;-73
2023/04/20 10:42:45;;;;;;;1.60;1.60;;;7.10;99.90;;;;;;6219621;23;20250;-73
2023/04/20 10:45:12;;;;;;;1.33;1.33;;;6.80;99.90;;;;;;6218821;23;20183;-73
2023/04/20 10:47:40;;;;;;;1.33;1.33;;;6.90;99.90;;;;;;6220897;23;20177;-73
2023/04/20 10:50:09;;;;;;;1.48;1.48;;;6.90;99.90;;;;;;6217033;23;20215;-73
2023/04/20 10:52:38;;;;;;;1.40;1.30;;;6.80;99.90;;;;;;6216227;23;20192;-74
2023/04/20 10:55:07;;;;;;;1.50;1.50;;;6.60;99.90;;;;;;6216127;23;20183;-73
2023/04/20 10:57:33;;;;;;;1.20;1.20;;;6.60;99.90;;;;;;6215986;23;20541;-72
2023/04/20 11:00:00;;;;;;;1.40;1.40;;;6.50;99.90;;;;;;6216118;23;20184;-74
2023/04/20 11:02:27;;;;;;;1.50;1.50;;;6.40;99.90;;;;;;6216255;23;20204;-72
2023/04/20 11:04:59;;;;;;;1.40;1.40;;;6.40;99.90;;;;;;6216360;23;20502;-73
2023/04/20 11:07:26;;;;;;;1.35;1.35;;;6.30;99.90;;;;;;6219696;23;20168;-73
2023/04/20 11:09:56;;;;;;;1.60;1.60;;;6.30;99.90;;;;;;6225794;23;20176;-73
2023/04/20 11:12:23;;;;;;;1.63;1.63;;;6.30;99.90;;;;;;6229795;23;20193;-72
2023/04/20 11:14:54;;;;;;;1.60;1.60;;;6.40;99.90;;;;;;6221534;23;20184;-73
2023/04/20 11:17:31;;;;;;;1.50;1.50;;;6.30;99.90;;;;;;6215561;23;20642;-73
2023/04/20 11:20:05;;;;;;;1.33;1.33;;;6.20;99.90;;;;;;6217331;23;20160;-73
2023/04/20 11:22:32;;;;;;;1.40;1.40;;;6.00;99.90;;;;;;6217991;23;20227;-72
2023/04/20 11:25:05;;;;;;;1.85;1.65;;;5.90;99.90;;;;;;6217967;23;20183;-73
2023/04/20 11:27:32;;;;;;;1.92;1.83;;;5.80;99.90;;;;;;6218120;23;20199;-73
2023/04/20 11:30:03;;;;;;;1.50;1.50;;;5.60;99.90;;;;;;6218335;23;20176;-73
2023/04/20 11:32:29;;;;;;;1.40;1.40;;;5.60;99.90;;;;;;6217638;23;20200;-74
2023/04/20 11:35:00;;;;;;;1.90;1.80;;;5.60;99.90;;;;;;6217987;23;20165;-72
2023/04/20 11:37:28;;;;;;;1.20;1.20;;;5.50;99.90;;;;;;6217818;23;20246;-73
2023/04/20 11:40:03;;;;;;;1.90;1.80;;;5.50;99.90;;;;;;6217913;23;20172;-74
2023/04/20 11:42:31;;;;;;;1.98;1.90;;;5.50;99.90;;;;;;6217575;23;20226;-73
2023/04/20 11:44:59;;;;;;;1.70;1.70;;;5.70;99.90;;;;;;6217715;23;20179;-73
2023/04/20 11:47:26;;;;;;;1.90;1.90;;;5.60;99.90;;;;;;6217796;23;20172;-73
2023/04/20 11:49:53;;;;;;;1.70;1.70;;;5.70;99.90;;;;;;6218105;23;20180;-72
2023/04/20 11:52:19;;;;;;;1.58;1.58;;;5.70;99.90;;;;;;6217602;23;20196;-72
2023/04/20 11:54:46;;;;;;;1.48;1.48;;;5.70;99.90;;;;;;6217718;23;20180;-72
2023/04/20 11:57:13;;;;;;;1.75;1.67;;;5.50;99.90;;;;;;6217327;23;20626;-72
2023/04/20 11:59:41;;;;;;;2.42;1.42;;;5.40;99.90;;;;;;6217724;23;20180;-73
2023/04/20 12:02:08;;;;;;;1.58;1.58;;;5.50;99.90;;;;;;6217963;23;20200;-72
2023/04/20 12:04:35;;;;;;;1.70;1.60;;;5.60;99.90;;;;;;6217519;23;20264;-72
2023/04/20 12:07:02;;;;;;;1.70;1.60;;;5.80;99.90;;;;;;6217507;23;20173;-72
2023/04/20 12:09:29;;;;;;;1.73;1.70;;;6.00;99.90;;;;;;6217141;23;20630;-72
2023/04/20 12:11:56;;;;;;;1.50;1.50;;;6.00;99.90;;;;;;6218139;23;20173;-72
2023/04/20 12:14:23;;;;;;;1.20;1.20;;;5.90;99.90;;;;;;6217535;23;20208;-73
2023/04/20 12:16:51;;;;;;;1.38;1.38;;;5.90;99.90;;;;;;6217097;23;20656;-72
2023/04/20 12:19:18;;;;;;;1.50;1.40;;;6.00;99.90;;;;;;6217344;23;20548;-72
2023/04/20 12:21:46;;;;;;;1.48;1.48;;;5.90;99.90;;;;;;6217316;23;20193;-72
2023/04/20 12:24:12;;;;;;;1.50;1.50;;;5.80;99.90;;;;;;6217393;23;20219;-73
2023/04/20 12:26:39;;;;;;;1.40;1.40;;;5.70;99.90;;;;;;6217411;23;20629;-72
2023/04/20 12:29:07;;;;;;;1.30;1.30;;;5.60;99.90;;;;;;6217407;23;20185;-72
2023/04/20 12:31:34;;;;;;;1.20;1.20;;;5.50;99.90;;;;;;6217204;23;20169;-73
2023/04/20 12:34:02;;;;;;;1.30;1.30;;;5.40;99.90;;;;;;6216875;23;20752;-72
2023/04/20 12:36:29;;;;;;;1.38;1.30;;;5.30;99.90;;;;;;6217402;23;20180;-72
2023/04/20 12:38:56;;;;;;;1.33;1.33;;;5.20;99.90;;;;;;6218211;23;20495;-73
2023/04/20 12:41:23;;;;;;;1.25;1.10;;;5.20;99.90;;;;;;6217722;23;20193;-73
2023/04/20 12:43:50;;;;;;;0.90;0.90;;;5.20;99.90;;;;;;6218302;23;20192;-73
2023/04/20 12:46:17;;;;;;;1.02;1.02;;;5.10;99.90;;;;;;6218350;23;20180;-73
2023/04/20 12:48:44;;;;;;;1.20;1.20;;;5.10;99.90;;;;;;6217515;23;20165;-72
2023/04/20 12:51:13;;;;;;;1.15;1.15;;;5.10;99.90;;;;;;6217642;23;20169;-73
2023/04/20 12:53:39;;;;;;;1.08;1.08;;;5.20;99.90;;;;;;6217800;23;20192;-72
2023/04/20 12:56:07;;;;;;;1.13;1.13;;;5.30;99.90;;;;;;6218255;23;20235;-72
2023/04/20 12:58:34;;;;;;;1.10;1.10;;;5.50;99.90;;;;;;6217402;23;20188;-72
2023/04/20 13:01:00;;;;;;;1.60;1.20;;;5.70;99.90;;;;;;6217104;23;20184;-71
2023/04/20 13:03:27;;;;;;;1.40;1.40;;;5.80;99.90;;;;;;6217484;23;20251;-72
2023/04/20 13:05:54;;;;;;;1.38;1.38;;;5.90;99.90;;;;;;6219015;23;20177;-71
2023/04/20 13:08:22;;;;;;;1.50;1.50;;;6.00;99.90;;;;;;6217238;23;20549;-71
2023/04/20 13:10:49;;;;;;;1.50;1.50;;;6.00;99.90;;;;;;6217039;23;20177;-71
2023/04/20 13:13:15;;;;;;;1.20;1.20;;;5.90;99.90;;;;;;6216642;23;20670;-72
2023/04/20 13:15:42;;;;;;;1.20;1.20;;;5.90;99.90;;;;;;6216930;23;20176;-72
2023/04/20 13:18:09;;;;;;;1.27;1.27;;;6.00;99.90;;;;;;6216990;23;20172;-71
2023/04/20 13:20:36;;;;;;;1.25;1.25;;;6.00;99.90;;;;;;6216948;23;20173;-71
2023/04/20 13:23:03;;;;;;;1.13;1.13;;;5.90;99.90;;;;;;6216772;23;20208;-72
2023/04/20 13:25:33;;;;;;;1.10;1.10;;;6.00;99.90;;;;;;6216902;23;20180;-72
2023/04/20 13:28:01;;;;;;;1.33;1.33;;;6.00;99.90;;;;;;6217033;23;20242;-72
2023/04/20 13:30:28;;;;;;;1.25;1.25;;;6.00;99.90;;;;;;6216862;23;20184;-73
2023/04/20 13:32:55;;;;;;;1.58;1.58;;;6.00;99.90;;;;;;6216784;23;20261;-73
2023/04/20 13:35:22;;;;;;;2.35;2.25;;;6.00;99.90;;;;;;6216822;23;20260;-73
2023/04/20 13:37:49;;;;;;;1.92;1.83;;;5.80;99.90;;;;;;6217280;23;20177;-72
2023/04/20 13:40:15;;;;;;;2.90;2.80;;;5.70;99.90;;;;;;6217295;23;20177;-72
2023/04/20 13:42:43;;;;;;;7.97;7.18;;;5.70;99.90;;;;;;6216250;23;20203;-73
2023/04/20 13:45:11;;;;;;;5.47;4.97;;;5.60;99.90;;;;;;6218188;23;20196;-73
2023/04/20 13:47:38;;;;;;;4.00;3.70;;;5.60;99.90;;;;;;6216265;23;20177;-73
2023/04/20 13:50:05;;;;;;;3.78;3.47;;;5.50;99.90;;;;;;6216242;23;20634;-72
2023/04/20 13:52:32;;;;;;;3.10;3.00;;;5.60;99.90;;;;;;6216765;23;20193;-73
2023/04/20 13:54:59;;;;;;;3.05;2.85;;;5.50;99.90;;;;;;6216554;23;20176;-72
2023/04/20 13:57:26;;;;;;;2.40;2.40;;;5.40;99.90;;;;;;6216428;23;20176;-71
2023/04/20 13:59:54;;;;;;;3.35;3.15;;;5.50;99.90;;;;;;6216607;23;20184;-72
2023/04/20 14:02:20;;;;;;;2.70;2.60;;;5.50;99.90;;;;;;6216099;23;20693;-72
2023/04/20 14:04:47;;;;;;;2.95;2.85;;;5.40;99.90;;;;;;6216525;23;20160;-72
2023/04/20 14:07:14;;;;;;;2.85;2.75;;;5.40;99.90;;;;;;6216516;23;20215;-74
2023/04/20 14:09:43;;;;;;;3.30;3.10;;;5.50;99.90;;;;;;6216110;23;20638;-72
2023/04/20 14:12:09;;;;;;;3.00;2.90;;;5.50;99.90;;;;;;6216004;23;20620;-73
2023/04/20 14:14:36;;;;;;;3.17;3.05;;;5.50;99.90;;;;;;6216762;23;20176;-72
2023/04/20 14:17:04;;;;;;;2.92;2.83;;;5.50;99.90;;;;;;6216232;23;20177;-72
2023/04/20 14:19:31;;;;;;;3.30;3.17;;;5.50;99.90;;;;;;6216568;23;20208;-72
2023/04/20 14:21:58;;;;;;;3.40;3.20;;;5.50;99.90;;;;;;6216337;23;20255;-72
2023/04/20 14:24:25;;;;;;;3.20;3.00;;;5.60;99.90;;;;;;6216599;23;20173;-72
2023/04/20 14:26:52;;;;;;;3.47;3.17;;;5.50;99.90;;;;;;6216549;23;20173;-72
2023/04/20 14:29:19;;;;;;;3.53;3.33;;;5.50;99.90;;;;;;6216463;23;20173;-72
2023/04/20 14:31:46;;;;;;;3.72;3.50;;;5.40;99.90;;;;;;6215996;23;20501;-72
2023/04/20 14:34:14;;;;;;;4.03;3.72;;;5.30;99.90;;;;;;6216274;23;20204;-72
2023/04/20 14:36:40;;;;;;;3.58;3.38;;;5.30;99.90;;;;;;6216502;23;20247;-72
2023/04/20 14:39:07;;;;;;;4.40;4.10;;;5.30;99.90;;;;;;6216411;23;20172;-72
2023/04/20 14:41:34;;;;;;;3.35;3.15;;;5.40;99.90;;;;;;6217368;23;20195;-72
2023/04/20 14:44:01;;;;;;;3.58;3.28;;;5.40;99.90;;;;;;6216405;23;20192;-72
2023/04/20 14:46:28;;;;;;;3.38;3.28;;;5.40;99.90;;;;;;6216537;23;20230;-74
2023/04/20 14:48:55;;;;;;;3.72;3.53;;;5.50;99.90;;;;;;6216377;23;20179;-73
2023/04/20 14:51:23;;;;;;;3.10;2.92;;;5.60;99.90;;;;;;6216443;23;20177;-73
2023/04/20 14:53:49;;;;;;;2.60;2.50;;;5.60;99.90;;;;;;6216142;23;20220;-73
2023/04/20 14:56:16;;;;;;;3.13;2.97;;;5.60;99.90;;;;;;6215752;23;20619;-72
2023/04/20 14:58:43;;;;;;;2.95;2.85;;;5.50;99.90;;;;;;6216437;23;20172;-72
2023/04/20 15:01:10;;;;;;;2.75;2.65;;;5.50;99.90;;;;;;6216206;23;20172;-72
2023/04/20 15:03:36;;;;;;;2.72;2.63;;;5.50;99.90;;;;;;6215488;23;20211;-72
2023/04/20 15:06:03;;;;;;;3.03;2.92;;;5.50;99.90;;;;;;6216280;23;20180;-73
2023/04/20 15:08:32;;;;;;;2.30;2.30;;;5.50;99.90;;;;;;6215917;23;20549;-73
2023/04/20 15:10:59;;;;;;;2.40;2.30;;;5.60;99.90;;;;;;6216418;23;20179;-72
2023/04/20 15:13:26;;;;;;;1.98;1.98;;;5.70;99.90;;;;;;6216958;23;20670;-72
2023/04/20 15:15:52;;;;;;;2.20;2.10;;;5.70;99.90;;;;;;6219545;23;20184;-72
2023/04/20 15:18:19;;;;;;;2.53;2.42;;;5.70;99.90;;;;;;6217321;23;20176;-73
2023/04/20 15:20:46;;;;;;;3.05;2.85;;;5.60;99.90;;;;;;6216025;23;20177;-72
2023/04/20 15:23:13;;;;;;;2.90;2.80;;;5.50;99.90;;;;;;6215934;23;20200;-72
2023/04/20 15:25:41;;;;;;;2.38;2.28;;;5.50;99.90;;;;;;6216055;23;20173;-72
2023/04/20 15:28:07;;;;;;;2.30;2.20;;;5.40;99.90;;;;;;6215484;23;20184;-72
2023/04/20 15:30:34;;;;;;;2.00;2.00;;;5.40;99.90;;;;;;6216259;23;20161;-72
2023/04/20 15:33:01;;;;;;;2.25;2.17;;;5.50;99.90;;;;;;6215786;23;20197;-71
2023/04/20 15:35:28;;;;;;;1.92;1.77;;;5.50;99.90;;;;;;6216166;23;20179;-71
2023/04/20 15:37:55;;;;;;;2.17;2.08;;;5.50;99.90;;;;;;6216036;23;20177;-71
2023/04/20 15:40:22;;;;;;;1.83;1.83;;;5.50;99.90;;;;;;6216073;23;20172;-70
2023/04/20 15:42:50;;;;;;;1.88;1.80;;;5.40;99.90;;;;;;6216194;23;20201;-70
2023/04/20 15:45:17;;;;;;;1.67;1.67;;;5.50;99.90;;;;;;6216150;23;20259;-71
2023/04/20 15:47:44;;;;;;;2.00;2.00;;;5.50;99.90;;;;;;6216263;23;20183;-70
2023/04/20 15:50:11;;;;;;;1.65;1.60;;;5.50;99.90;;;;;;6216027;23;20172;-71
2023/04/20 15:52:38;;;;;;;2.05;1.95;;;5.60;99.90;;;;;;6215573;23;20192;-70
2023/04/20 15:55:07;;;;;;;1.50;1.50;;;5.70;99.90;;;;;;6215715;23;20642;-72
2023/04/20 15:57:34;;;;;;;1.70;1.70;;;5.70;99.90;;;;;;6215910;23;20645;-71
2023/04/20 16:00:03;;;;;;;2.00;1.95;;;5.70;99.90;;;;;;6215898;23;20195;-71
2023/04/20 16:02:29;;;;;;;1.50;1.50;;;5.70;99.90;;;;;;6215336;23;20733;-71
2023/04/20 16:04:56;;;;;;;1.77;1.70;;;5.70;99.90;;;;;;6215898;23;20483;-71
2023/04/20 16:07:23;;;;;;;2.22;2.13;;;5.70;99.90;;;;;;6217717;23;20180;-71
2023/04/20 16:09:49;;;;;;;1.67;1.67;;;5.70;99.90;;;;;;6217625;23;20177;-71
2023/04/20 16:12:16;;;;;;;1.67;1.60;;;5.70;99.90;;;;;;6217695;23;20525;-71
2023/04/20 16:14:43;;;;;;;1.70;1.70;;;5.70;99.90;;;;;;6218289;23;20177;-71
2023/04/20 16:17:11;;;;;;;1.50;1.50;;;5.70;99.90;;;;;;6218099;23;20180;-72
2023/04/20 16:19:38;;;;;;;1.60;1.60;;;5.70;99.90;;;;;;6217744;23;20549;-71
2023/04/20 16:22:04;;;;;;;1.52;1.42;;;5.80;99.90;;;;;;6217994;23;20195;-71
2023/04/20 16:24:31;;;;;;;1.83;1.73;;;5.70;99.90;;;;;;6217822;23;20184;-71
2023/04/20 16:27:00;;;;;;;1.60;1.60;;;5.70;99.90;;;;;;6217497;23;20510;-69
2023/04/20 16:29:27;;;;;;;1.90;1.80;;;5.70;99.90;;;;;;6217947;23;20255;-70
2023/04/20 16:31:53;;;;;;;2.28;2.17;;;5.70;99.90;;;;;;6217819;23;20173;-70
2023/04/20 16:34:23;;;;;;;2.45;2.35;;;5.70;99.90;;;;;;6217513;23;20184;-70
2023/04/20 16:36:49;;;;;;;2.33;2.22;;;5.70;99.90;;;;;;6217428;23;20177;-70
2023/04/20 16:39:17;;;;;;;2.10;2.10;;;5.70;99.90;;;;;;6217502;23;20176;-69
2023/04/20 16:41:44;;;;;;;1.73;1.73;;;5.80;99.90;;;;;;6217626;23;20177;-69
2023/04/20 16:44:12;;;;;;;2.17;2.10;;;5.70;99.90;;;;;;6217203;23;20224;-70
2023/04/20 16:46:40;;;;;;;2.35;2.25;;;5.70;99.90;;;;;;6217251;23;20211;-70
2023/04/20 16:49:08;;;;;;;2.20;2.10;;;5.80;99.90;;;;;;6217401;23;20173;-70
2023/04/20 16:51:36;;;;;;;5.35;4.30;;;5.80;99.90;;;;;;6217423;23;20177;-70
2023/04/20 16:54:02;;;;;;;4.68;4.20;;;5.80;99.90;;;;;;6217312;23;20188;-70
2023/04/20 16:56:29;;;;;;;4.88;4.30;;;5.70;99.90;;;;;;6217830;23;20173;-70
2023/04/20 16:58:56;;;;;;;3.97;3.67;;;5.60;99.90;;;;;;6217325;23;20554;-70
2023/04/20 17:01:22;;;;;;;5.45;4.95;;;5.60;99.90;;;;;;6217328;23;20195;-70
2023/04/20 17:03:50;;;;;;;4.80;4.45;;;5.60;99.90;;;;;;6217297;23;20515;-70
2023/04/20 17:06:16;;;;;;;5.03;4.53;;;5.60;99.90;;;;;;6217382;23;20215;-69
2023/04/20 17:08:44;;;;;;;4.57;4.18;;;5.70;99.90;;;;;;6216936;23;20533;-70
2023/04/20 17:11:11;;;;;;;4.50;4.20;;;5.70;99.90;;;;;;6217187;23;20157;-69
2023/04/20 17:13:38;;;;;;;4.40;4.10;;;5.70;99.90;;;;;;6217200;23;20196;-70
2023/04/20 17:16:05;;;;;;;4.03;3.72;;;5.60;99.90;;;;;;6217165;23;20231;-69
2023/04/20 17:18:33;;;;;;;3.55;3.30;;;5.70;99.90;;;;;;6217000;23;20180;-68
2023/04/20 17:21:01;;;;;;;3.47;3.28;;;5.70;99.90;;;;;;6217142;23;20157;-69
2023/04/20 17:23:28;;;;;;;3.65;3.47;;;5.70;99.90;;;;;;6216521;23;20204;-68
2023/04/20 17:25:58;;;;;;;3.55;3.35;;;5.70;99.90;;;;;;6217271;23;20189;-69
2023/04/20 17:28:25;;;;;;;3.25;3.15;;;5.70;99.90;;;;;;6217054;23;20173;-69
2023/04/20 17:30:51;;;;;;;3.05;2.88;;;5.70;99.90;;;;;;6217222;23;20179;-69
2023/04/20 17:33:18;;;;;;;3.22;3.03;;;5.70;99.90;;;;;;6216787;23;20275;-68
2023/04/20 17:35:45;;;;;;;3.30;3.10;;;5.70;99.90;;;;;;6216771;23;20510;-68
2023/04/20 17:38:12;;;;;;;2.33;2.33;;;5.70;99.90;;;;;;6217371;23;20183;-68
2023/04/20 17:40:39;;;;;;;3.42;3.25;;;5.70;99.90;;;;;;6217075;23;20177;-69
2023/04/20 17:43:07;;;;;;;2.70;2.60;;;5.70;99.90;;;;;;6216987;23;20197;-70
2023/04/20 17:45:34;;;;;;;2.60;2.50;;;5.70;99.90;;;;;;6217078;23;20656;-69
2023/04/20 17:48:14;;;;;;;2.55;2.45;;;5.70;99.90;;;;;;6216807;23;20502;-69
2023/04/20 17:57:20;;;;;;;2.80;2.70;;;5.80;99.90;;;;;;6214630;22;20653;-70
2023/04/20 17:59:49;;;;;;;2.20;2.10;;;5.80;99.90;;;;;;6216959;23;20505;-69
2023/04/20 18:02:16;;;;;;;2.65;2.45;;;5.80;99.90;;;;;;6216799;23;20176;-69
2023/04/20 18:04:42;;;;;;;1.90;1.90;;;5.80;99.90;;;;;;6216661;23;20200;-69
2023/04/20 18:07:11;;;;;;;2.47;2.38;;;5.80;99.90;;;;;;6216768;23;20193;-69
2023/04/20 18:09:38;;;;;;;1.98;1.98;;;5.70;99.90;;;;;;6216325;23;20558;-68
2023/04/20 18:12:07;;;;;;;1.98;1.98;;;5.70;99.90;;;;;;6216757;23;20208;-68
2023/04/20 18:14:34;;;;;;;2.38;2.28;;;5.70;99.90;;;;;;6216384;23;20622;-69
2023/04/20 18:17:02;;;;;;;1.67;1.63;;;5.70;99.90;;;;;;6216937;23;20192;-69
2023/04/20 18:19:29;;;;;;;1.88;1.88;;;5.70;99.90;;;;;;6216417;23;20252;-69
2023/04/20 18:21:55;;;;;;;1.77;1.77;;;5.70;99.90;;;;;;6216787;23;20226;-69
2023/04/20 18:24:22;;;;;;;2.45;2.30;;;5.70;99.90;;;;;;6216470;23;20192;-69
2023/04/20 18:26:49;;;;;;;2.80;2.70;;;5.60;99.90;;;;;;6216455;22;20204;-69
2023/04/20 18:29:16;;;;;;;2.65;2.55;;;5.80;99.90;;;;;;6216276;23;20176;-70
2023/04/20 18:31:44;;;;;;;2.50;2.40;;;5.60;99.90;;;;;;6216862;23;20176;-70
2023/04/20 18:34:12;;;;;;;2.15;2.15;;;5.60;99.90;;;;;;6216306;23;20173;-69
2023/04/20 18:36:40;;;;;;;2.75;2.60;;;5.50;99.90;;;;;;6216669;23;20203;-69
2023/04/20 18:39:08;;;;;;;2.72;2.63;;;5.60;99.90;;;;;;6216717;23;20231;-69
2023/04/20 18:41:35;;;;;;;2.72;2.63;;;5.50;99.90;;;;;;6216616;23;20180;-69
2023/04/20 18:44:02;;;;;;;2.42;2.33;;;5.50;99.90;;;;;;6216447;23;20224;-69
2023/04/20 18:46:29;;;;;;;2.22;2.22;;;5.60;99.90;;;;;;6216384;23;20227;-68
2023/04/20 18:48:55;;;;;;;2.72;2.63;;;5.50;99.90;;;;;;6216643;23;20195;-69
2023/04/20 18:51:24;;;;;;;3.38;3.08;;;5.60;99.90;;;;;;6216798;23;20172;-69
2023/04/20 18:53:51;;;;;;;2.67;2.58;;;5.50;99.90;;;;;;6217540;23;20243;-68
2023/04/20 18:56:18;;;;;;;3.22;3.13;;;5.50;99.90;;;;;;6216768;23;20214;-69
2023/04/20 18:58:45;;;;;;;3.00;2.90;;;5.50;99.90;;;;;;6217021;23;20193;-69
2023/04/20 19:01:12;;;;;;;3.30;3.17;;;5.50;99.90;;;;;;6219896;23;20641;-70
2023/04/20 19:03:39;;;;;;;3.53;3.33;;;5.50;99.90;;;;;;6219445;23;20199;-70
2023/04/20 19:06:06;;;;;;;4.30;4.00;;;5.50;99.90;;;;;;6218116;23;20204;-69
2023/04/20 19:08:34;;;;;;;4.00;3.75;;;5.40;99.90;;;;;;6218164;23;20172;-70
2023/04/20 19:11:01;;;;;;;3.60;3.40;;;5.30;99.90;;;;;;6217117;23;20183;-70
2023/04/20 19:13:28;;;;;;;3.60;3.40;;;5.30;99.90;;;;;;6216584;23;20517;-69
2023/04/20 19:15:56;;;;;;;3.35;3.15;;;5.30;99.90;;;;;;6216475;23;20696;-69
2023/04/20 19:18:24;;;;;;;3.03;2.83;;;5.30;99.90;;;;;;6217227;23;20256;-69
2023/04/20 19:20:50;;;;;;;3.53;3.40;;;5.30;99.90;;;;;;6215877;23;20656;-70
2023/04/20 19:23:17;;;;;;;3.58;3.40;;;5.30;99.90;;;;;;6215666;23;20533;-69
2023/04/20 19:25:45;;;;;;;3.80;3.60;;;5.30;99.90;;;;;;6215848;23;20204;-70
2023/04/20 19:28:12;;;;;;;3.33;3.13;;;5.30;99.90;;;;;;6215721;23;20660;-70
2023/04/20 19:30:39;;;;;;;3.75;3.50;;;5.30;99.90;;;;;;6216249;23;20180;-70
2023/04/20 19:33:06;;;;;;;3.08;2.97;;;5.30;99.90;;;;;;6216004;23;20177;-69
2023/04/20 19:35:33;;;;;;;2.97;2.88;;;5.30;99.90;;;;;;6216023;23;20204;-69
2023/04/20 19:38:00;;;;;;;2.60;2.50;;;5.30;99.90;;;;;;6216121;23;20184;-70
2023/04/20 19:40:27;;;;;;;2.90;2.80;;;5.30;99.90;;;;;;6216083;23;20196;-71
2023/04/20 19:42:55;;;;;;;3.00;2.90;;;5.30;99.90;;;;;;6218236;23;20173;-70
2023/04/20 19:45:22;;;;;;;2.80;2.70;;;5.30;99.90;;;;;;6217973;23;20201;-70
2023/04/20 19:47:49;;;;;;;3.42;3.33;;;5.30;99.90;;;;;;6217548;23;20194;-70
2023/04/20 19:50:15;;;;;;;3.40;3.30;;;5.30;99.90;;;;;;6217915;23;20204;-69
2023/04/20 19:52:42;;;;;;;3.47;3.28;;;5.20;99.90;;;;;;6218454;23;20157;-70
2023/04/20 19:55:09;;;;;;;4.10;3.80;;;5.20;99.90;;;;;;6220779;23;20173;-70
2023/04/20 19:57:36;;;;;;;3.72;3.53;;;5.20;99.90;;;;;;6229130;23;20177;-70
2023/04/20 20:00:06;;;;;;;4.22;3.92;;;5.10;99.90;;;;;;6231382;23;20176;-70
2023/04/20 20:02:33;;;;;;;4.18;3.83;;;5.20;99.90;;;;;;6225890;23;20173;-70
2023/04/20 20:04:59;;;;;;;4.53;4.22;;;5.20;99.90;;;;;;6217810;23;20196;-69
2023/04/20 20:07:26;;;;;;;3.53;3.33;;;5.20;99.90;;;;;;6217925;23;20176;-69
2023/04/20 20:09:53;;;;;;;3.67;3.47;;;5.20;99.90;;;;;;6217809;23;20518;-69
2023/04/20 20:12:20;;;;;;;3.95;3.75;;;5.20;99.90;;;;;;6217976;23;20184;-69
2023/04/20 20:14:47;;;;;;;3.53;3.33;;;5.30;99.90;;;;;;6217840;23;20176;-70
2023/04/20 20:17:15;;;;;;;3.72;3.53;;;5.30;99.90;;;;;;6218031;23;20193;-70
2023/04/20 20:19:41;;;;;;;3.30;3.20;;;5.30;99.90;;;;;;6217725;23;20195;-70
2023/04/20 20:22:08;;;;;;;3.42;3.22;;;5.20;99.90;;;;;;6217698;23;20234;-69
2023/04/20 20:24:35;;;;;;;3.70;3.55;;;5.20;99.90;;;;;;6217285;23;20332;-70
2023/04/20 20:27:02;;;;;;;4.15;3.95;;;5.20;99.90;;;;;;6216947;23;20255;-70
2023/04/20 20:29:29;;;;;;;4.30;4.00;;;5.20;99.90;;;;;;6217487;23;20231;-69
2023/04/20 20:31:55;;;;;;;4.75;4.45;;;5.20;99.90;;;;;;6217454;23;20200;-69
2023/04/20 20:34:23;;;;;;;3.95;3.75;;;5.20;99.90;;;;;;6217365;23;20173;-69
2023/04/20 20:36:52;;;;;;;4.75;4.45;;;5.20;99.90;;;;;;6216877;23;20511;-70
2023/04/20 20:39:19;;;;;;;3.15;3.05;;;5.20;99.90;;;;;;6217166;23;20181;-69
2023/04/20 20:41:46;;;;;;;3.70;3.50;;;5.30;99.90;;;;;;6217212;23;20177;-70
2023/04/20 20:44:12;;;;;;;3.95;3.67;;;5.30;99.90;;;;;;6217081;23;20197;-69
2023/04/20 20:46:39;;;;;;;3.83;3.63;;;5.30;99.90;;;;;;6217138;23;20235;-70
2023/04/20 20:49:06;;;;;;;4.20;4.00;;;5.30;99.90;;;;;;6217309;23;20208;-70
2023/04/20 20:51:34;;;;;;;4.25;3.97;;;5.30;99.90;;;;;;6216936;23;20176;-70
2023/04/20 20:54:01;;;;;;;4.43;4.13;;;5.30;99.90;;;;;;6217201;23;20172;-70
2023/04/20 20:56:27;;;;;;;3.80;3.63;;;5.20;99.90;;;;;;6217188;23;20193;-71
2023/04/20 20:58:54;;;;;;;4.28;3.97;;;5.10;99.90;;;;;;6217661;23;20177;-71
2023/04/20 21:01:21;;;;;;;4.00;3.78;;;4.90;99.90;;;;;;6217178;23;20180;-70
2023/04/20 21:03:48;;;;;;;4.80;4.43;;;4.80;99.90;;;;;;6216995;23;20189;-70
2023/04/20 21:06:15;;;;;;;6.85;6.18;;;4.60;99.90;;;;;;6217008;23;20192;-70
2023/04/20 21:08:43;;;;;;;7.30;6.57;;;4.50;99.90;;;;;;6217047;23;20177;-70
2023/04/20 21:11:10;;;;;;;6.57;5.97;;;4.40;99.90;;;;;;6216586;23;20224;-70
2023/04/20 21:13:36;;;;;;;6.85;6.25;;;4.40;99.90;;;;;;6216918;23;20179;-70
2023/04/20 21:16:03;;;;;;;6.25;5.85;;;4.40;99.90;;;;;;6216900;23;20204;-70
2023/04/20 21:18:30;;;;;;;6.65;6.15;;;4.40;99.90;;;;;;6216540;23;20506;-70
2023/04/20 21:20:57;;;;;;;6.75;6.15;;;4.40;99.90;;;;;;6216522;23;20553;-70
2023/04/20 21:23:23;;;;;;;7.07;6.47;;;4.40;99.90;;;;;;6217189;23;20173;-70
2023/04/20 21:25:51;;;;;;;7.13;6.43;;;4.40;99.90;;;;;;6216424;23;20208;-70
2023/04/20 21:28:18;;;;;;;6.80;6.20;;;4.40;99.90;;;;;;6217502;23;20177;-70
2023/04/20 21:30:45;;;;;;;6.72;6.20;;;4.50;99.90;;;;;;6217368;23;20177;-71
2023/04/20 21:33:11;;;;;;;6.20;5.70;;;4.50;99.90;;;;;;6219245;23;20177;-71
2023/04/20 21:35:38;;;;;;;5.68;5.28;;;4.60;99.90;;;;;;6216930;23;20200;-69
2023/04/20 21:38:05;;;;;;;5.18;4.82;;;4.60;99.90;;;;;;6216421;23;20487;-69
2023/04/20 21:40:33;;;;;;;5.53;5.15;;;4.60;99.90;;;;;;6217080;23;20177;-68
